Time;durP1;ratioP1;P1;durP2;ratioP2;P2;SDS_P1;SDS_P2;PMS_P1;PMS_P2;Temp;Humidity;BMP_temperature;BMP_pressure;BME280_temperature;BME280_humidity;BME280_pressure;Samples;Min_cycle;Max_cycle;Signal;HPM_P1;HPM_P2
2022/05/11 00:00:37;;;;;;;3.75;1.90;;;20.30;89.60;;;;;;4153557;28;20049;-69
2022/05/11 00:02:38;;;;;;;2.85;2.05;;;20.30;89.80;;;;;;4154844;28;20585;-69
2022/05/11 00:04:39;;;;;;;2.50;1.77;;;20.20;89.90;;;;;;4152554;28;20030;-69
2022/05/11 00:06:40;;;;;;;4.25;2.30;;;20.20;89.90;;;;;;4158313;28;20067;-69
2022/05/11 00:08:40;;;;;;;2.40;1.92;;;20.20;90.20;;;;;;4150598;28;20030;-69
2022/05/11 00:10:41;;;;;;;3.55;2.58;;;20.20;90.00;;;;;;4157442;28;20071;-69
2022/05/11 00:12:45;;;;;;;4.13;2.53;;;20.20;90.30;;;;;;4155378;28;20033;-69
2022/05/11 00:14:46;;;;;;;5.97;2.03;;;20.10;90.40;;;;;;4158378;28;20087;-69
2022/05/11 00:16:46;;;;;;;3.53;2.25;;;20.10;90.50;;;;;;4155194;28;20045;-69
2022/05/11 00:18:47;;;;;;;3.28;2.28;;;20.10;90.50;;;;;;4149378;28;20045;-69
2022/05/11 00:20:47;;;;;;;2.95;2.05;;;20.10;90.90;;;;;;4155286;28;20493;-69
2022/05/11 00:22:53;;;;;;;3.25;2.00;;;20.00;90.60;;;;;;4158213;28;20404;-69
2022/05/11 00:24:54;;;;;;;3.08;2.17;;;19.90;90.80;;;;;;4153536;28;20100;-69
2022/05/11 00:26:54;;;;;;;3.90;2.33;;;19.90;90.80;;;;;;4151842;28;20484;-69
2022/05/11 00:28:55;;;;;;;6.38;2.33;;;19.90;90.90;;;;;;4155210;28;20388;-69
2022/05/11 00:30:55;;;;;;;4.47;2.30;;;19.80;91.40;;;;;;4145497;28;20121;-70
2022/05/11 00:32:58;;;;;;;4.30;2.50;;;19.80;91.10;;;;;;4152754;28;20409;-69
2022/05/11 00:34:58;;;;;;;2.47;2.28;;;19.70;91.60;;;;;;4148895;28;20052;-69
2022/05/11 00:37:01;;;;;;;3.00;2.22;;;19.70;91.40;;;;;;4157227;28;20038;-69
2022/05/11 00:39:02;;;;;;;4.25;2.50;;;19.70;91.70;;;;;;4147937;28;20125;-69
2022/05/11 00:41:03;;;;;;;2.88;2.50;;;19.70;92.00;;;;;;4158273;28;20050;-69
2022/05/11 00:43:04;;;;;;;4.85;2.63;;;19.70;91.80;;;;;;4154917;28;20054;-69
2022/05/11 00:45:06;;;;;;;3.45;2.30;;;19.70;91.60;;;;;;4149554;28;20041;-69
2022/05/11 00:47:20;;;;;;;3.17;2.20;;;19.70;91.40;;;;;;4154824;28;20060;-69
2022/05/11 00:49:43;;;;;;;2.92;2.40;;;19.70;91.40;;;;;;4149693;28;20745;-69
2022/05/11 00:51:55;;;;;;;4.82;2.50;;;19.70;91.60;;;;;;4159644;28;20033;-69
2022/05/11 00:53:55;;;;;;;6.83;3.23;;;19.60;91.40;;;;;;4147238;28;20121;-70
2022/05/11 00:55:59;;;;;;;4.93;3.05;;;19.70;91.70;;;;;;4150018;28;20037;-70
2022/05/11 00:58:07;;;;;;;5.57;2.90;;;19.60;92.00;;;;;;4162037;28;20554;-70
2022/05/11 01:00:13;;;;;;;3.67;2.60;;;19.60;91.90;;;;;;4158946;28;20476;-70
2022/05/11 01:02:14;;;;;;;4.28;2.60;;;19.50;91.80;;;;;;4148076;28;20572;-68
2022/05/11 01:04:17;;;;;;;4.40;2.47;;;19.50;91.70;;;;;;4159195;28;20038;-68
2022/05/11 01:06:21;;;;;;;4.00;2.83;;;19.50;92.00;;;;;;4157744;28;20038;-69
2022/05/11 01:08:22;;;;;;;2.53;2.28;;;19.50;91.80;;;;;;4159386;28;20030;-69
2022/05/11 01:10:28;;;;;;;3.30;2.47;;;19.50;91.90;;;;;;4157736;28;20060;-70
2022/05/11 01:12:37;;;;;;;4.22;2.92;;;19.50;91.90;;;;;;4162393;28;20112;-69
2022/05/11 01:14:40;;;;;;;6.03;3.13;;;19.50;91.90;;;;;;4155923;28;20041;-69
2022/05/11 01:16:41;;;;;;;4.18;2.80;;;19.50;92.00;;;;;;4158502;28;20041;-69
2022/05/11 01:18:46;;;;;;;4.20;3.00;;;19.50;92.10;;;;;;4156681;28;20574;-69
2022/05/11 01:20:47;;;;;;;6.70;3.25;;;19.50;91.90;;;;;;4157027;28;20509;-69
2022/05/11 01:23:03;;;;;;;4.78;2.97;;;19.40;92.00;;;;;;4157206;28;20040;-69
2022/05/11 01:25:06;;;;;;;5.40;2.92;;;19.40;92.20;;;;;;4157007;28;20028;-69
2022/05/11 01:27:32;;;;;;;5.95;2.60;;;19.30;92.20;;;;;;4158354;28;20080;-69
2022/05/11 01:29:32;;;;;;;6.13;2.72;;;19.30;92.10;;;;;;4157411;28;20135;-69
2022/05/11 01:31:33;;;;;;;6.60;2.90;;;19.30;92.30;;;;;;4164944;28;20151;-69
2022/05/11 01:33:37;;;;;;;3.90;2.47;;;19.30;92.40;;;;;;4162213;28;20034;-69
2022/05/11 01:35:47;;;;;;;4.80;3.03;;;19.30;92.40;;;;;;4158282;28;20025;-69
2022/05/11 01:38:12;;;;;;;7.35;2.80;;;19.30;92.40;;;;;;4158866;28;20457;-69
2022/05/11 01:40:13;;;;;;;3.35;2.40;;;19.30;92.30;;;;;;4153146;28;20131;-69
2022/05/11 01:42:14;;;;;;;4.35;2.50;;;19.30;92.70;;;;;;4156865;28;20033;-69
2022/05/11 01:44:17;;;;;;;7.55;3.08;;;19.30;92.50;;;;;;4155906;28;20041;-69
2022/05/11 01:46:18;;;;;;;3.45;2.53;;;19.30;92.50;;;;;;4154021;28;20038;-69
2022/05/11 01:48:19;;;;;;;5.22;3.33;;;19.30;92.40;;;;;;4157379;28;20034;-69
2022/05/11 01:50:20;;;;;;;7.70;3.35;;;19.30;92.70;;;;;;4155292;28;20040;-69
2022/05/11 01:52:20;;;;;;;5.68;2.85;;;19.30;92.50;;;;;;4154933;28;20484;-70
2022/05/11 01:54:21;;;;;;;6.43;3.60;;;19.30;92.40;;;;;;4160543;28;20040;-70
2022/05/11 01:56:23;;;;;;;5.05;3.25;;;19.30;92.40;;;;;;4152159;28;20030;-69
2022/05/11 01:58:25;;;;;;;4.18;2.85;;;19.30;92.50;;;;;;4155904;28;20041;-69
2022/05/11 02:00:26;;;;;;;5.75;2.95;;;19.30;92.70;;;;;;4160690;28;20037;-69
2022/05/11 02:02:26;;;;;;;13.88;3.70;;;19.30;92.60;;;;;;4153367;28;20053;-69
2022/05/11 02:09:07;;;;;;;6.85;3.70;;;19.20;92.80;;;;;;4149412;28;20053;-69
2022/05/11 02:11:08;;;;;;;7.10;3.77;;;19.20;92.50;;;;;;4155987;28;20037;-69
2022/05/11 02:13:08;;;;;;;6.78;3.60;;;19.20;92.90;;;;;;4161722;28;20342;-69
2022/05/11 02:15:10;;;;;;;6.57;3.17;;;19.20;92.40;;;;;;4152950;28;20029;-69
2022/05/11 02:17:12;;;;;;;9.27;3.03;;;19.20;92.50;;;;;;4159831;28;20049;-69
2022/05/11 02:19:13;;;;;;;5.25;2.95;;;19.20;92.60;;;;;;4160717;28;20091;-69
2022/05/11 02:21:13;;;;;;;5.07;3.20;;;19.20;92.60;;;;;;4150813;28;20038;-69
2022/05/11 02:23:16;;;;;;;6.10;3.00;;;19.20;93.00;;;;;;4154432;28;20121;-69
2022/05/11 02:25:17;;;;;;;;;;;19.20;92.90;;;;;;4153749;28;20390;-69
2022/05/11 02:27:18;;;;;;;4.32;2.67;;;19.20;92.70;;;;;;4160361;28;19968;-69
2022/05/11 02:29:19;;;;;;;4.40;2.63;;;19.20;92.60;;;;;;4152332;28;20038;-69
2022/05/11 02:31:20;;;;;;;4.13;2.85;;;19.20;92.50;;;;;;4154392;28;20059;-69
2022/05/11 02:33:22;;;;;;;7.38;2.42;;;19.20;92.70;;;;;;4160267;28;20033;-69
2022/05/11 02:35:24;;;;;;;3.92;2.50;;;19.10;92.90;;;;;;4153427;28;20535;-70
2022/05/11 02:37:25;;;;;;;;;;;19.20;92.80;;;;;;4154876;28;20042;-69
2022/05/11 02:39:25;;;;;;;4.97;2.55;;;19.20;92.40;;;;;;4155668;28;20393;-68
2022/05/11 02:41:26;;;;;;;3.92;2.50;;;19.20;92.70;;;;;;4147410;28;20061;-69
2022/05/11 02:43:28;;;;;;;3.92;2.38;;;19.10;92.80;;;;;;4159324;28;20042;-69
2022/05/11 02:45:30;;;;;;;4.07;2.60;;;19.20;93.60;;;;;;4157770;28;20121;-69
2022/05/11 02:47:30;;;;;;;3.40;2.72;;;19.20;93.20;;;;;;4157026;28;20382;-69
2022/05/11 02:49:31;;;;;;;3.78;2.15;;;19.30;94.00;;;;;;4147748;28;20112;-69
2022/05/11 02:51:32;;;;;;;5.57;2.70;;;19.30;93.30;;;;;;4155177;28;20767;-69
2022/05/11 02:53:33;;;;;;;6.18;2.92;;;19.30;93.00;;;;;;4157822;28;20041;-69
2022/05/11 02:55:36;;;;;;;5.07;2.70;;;19.30;93.20;;;;;;4155858;28;20037;-69
2022/05/11 02:57:37;;;;;;;3.50;2.85;;;19.30;93.00;;;;;;4155933;28;20042;-69
2022/05/11 02:59:37;;;;;;;3.42;2.53;;;19.30;92.80;;;;;;4153249;28;20060;-69
2022/05/11 03:01:38;;;;;;;5.28;2.95;;;19.30;92.70;;;;;;4156753;28;20029;-69
2022/05/11 03:03:38;;;;;;;3.95;2.78;;;19.30;92.90;;;;;;4154076;28;20029;-69
2022/05/11 03:05:40;;;;;;;3.47;2.60;;;19.20;92.70;;;;;;4153735;28;20042;-69
2022/05/11 03:07:40;;;;;;;2.90;2.55;;;19.20;92.90;;;;;;4153763;28;20046;-69
2022/05/11 03:09:41;;;;;;;4.25;2.75;;;19.20;92.90;;;;;;4153634;28;20517;-69
2022/05/11 03:11:43;;;;;;;5.25;3.40;;;19.20;93.10;;;;;;4154636;28;20050;-69
2022/05/11 03:13:44;;;;;;;4.82;2.65;;;19.20;92.90;;;;;;4158149;28;20056;-69
2022/05/11 03:15:44;;;;;;;4.32;2.60;;;19.20;93.20;;;;;;4157435;28;20053;-69
2022/05/11 03:17:45;;;;;;;6.22;3.13;;;19.20;93.20;;;;;;4154451;28;20416;-69
2022/05/11 03:19:46;;;;;;;5.05;3.50;;;19.10;93.70;;;;;;4158378;28;20109;-69
2022/05/11 03:21:47;;;;;;;8.80;3.30;;;19.10;93.20;;;;;;4154590;28;20029;-69
2022/05/11 03:23:48;;;;;;;5.07;3.25;;;19.00;93.40;;;;;;4157562;28;20032;-69
2022/05/11 03:25:48;;;;;;;6.05;3.45;;;19.00;93.70;;;;;;4155207;28;20469;-69
2022/05/11 03:27:49;;;;;;;7.65;3.45;;;18.90;93.60;;;;;;4153575;28;20477;-69
2022/05/11 03:29:51;;;;;;;6.00;3.50;;;18.90;93.50;;;;;;4152980;28;20033;-69
2022/05/11 03:36:31;;;;;;;4.75;3.25;;;18.80;93.90;;;;;;4149639;28;20045;-69
2022/05/11 03:38:31;;;;;;;7.43;3.60;;;18.80;93.90;;;;;;4154734;28;20048;-69
2022/05/11 03:40:32;;;;;;;6.60;3.65;;;18.80;93.90;;;;;;4155276;28;20041;-69
2022/05/11 03:42:33;;;;;;;5.97;3.25;;;18.70;93.80;;;;;;4153529;28;20038;-69
2022/05/11 03:44:34;;;;;;;4.95;3.28;;;18.70;94.10;;;;;;4155996;28;20117;-69
2022/05/11 03:46:35;;;;;;;8.68;3.70;;;18.70;94.50;;;;;;4153374;28;20030;-69
2022/05/11 03:48:39;;;;;;;4.77;3.67;;;18.60;94.00;;;;;;4152106;28;20051;-69
2022/05/11 03:50:40;;;;;;;6.15;3.53;;;18.60;94.40;;;;;;4148281;28;20042;-69
2022/05/11 03:52:41;;;;;;;6.50;3.70;;;18.60;94.70;;;;;;4158060;28;20041;-69
2022/05/11 03:54:42;;;;;;;6.22;3.35;;;18.60;94.50;;;;;;4157094;28;20484;-69
2022/05/11 03:56:42;;;;;;;5.43;3.20;;;18.60;94.50;;;;;;4154384;28;20064;-69
2022/05/11 03:58:43;;;;;;;6.03;3.67;;;18.60;94.60;;;;;;4154972;28;20049;-69
2022/05/11 04:00:44;;;;;;;6.40;3.50;;;18.60;94.50;;;;;;4155578;28;20464;-69
2022/05/11 04:02:44;;;;;;;6.03;3.25;;;18.60;94.50;;;;;;4154502;28;20046;-69
2022/05/11 04:04:45;;;;;;;7.43;3.42;;;18.60;94.40;;;;;;4151795;28;20037;-69
2022/05/11 04:06:46;;;;;;;9.18;3.55;;;18.60;94.90;;;;;;4154118;28;20022;-69
2022/05/11 04:08:47;;;;;;;6.70;3.75;;;18.60;94.60;;;;;;4152825;28;20125;-69
2022/05/11 04:10:47;;;;;;;7.63;3.63;;;18.60;94.60;;;;;;4153924;28;20440;-69
2022/05/11 04:12:48;;;;;;;7.55;3.50;;;18.60;94.90;;;;;;4154237;28;20049;-69
2022/05/11 04:14:48;;;;;;;6.97;3.40;;;18.60;94.40;;;;;;4153739;28;20109;-69
2022/05/11 04:16:58;;;;;;;8.27;3.55;;;18.60;94.50;;;;;;4153219;28;20064;-69
2022/05/11 04:18:59;;;;;;;8.10;3.45;;;18.60;94.60;;;;;;4154671;28;20034;-69
2022/05/11 04:21:00;;;;;;;9.13;3.90;;;18.60;94.70;;;;;;4156963;28;20159;-69
2022/05/11 04:23:00;;;;;;;6.82;3.58;;;18.50;94.80;;;;;;4157026;28;20042;-69
2022/05/11 04:25:01;;;;;;;8.05;3.53;;;18.50;94.90;;;;;;4153871;28;20036;-69
2022/05/11 04:27:02;;;;;;;7.63;4.00;;;18.50;94.80;;;;;;4152984;28;20037;-69
2022/05/11 04:29:02;;;;;;;8.52;3.40;;;18.50;94.90;;;;;;4152773;28;20397;-69
2022/05/11 04:31:05;;;;;;;4.78;3.45;;;18.50;94.80;;;;;;4156024;28;20049;-69
2022/05/11 04:33:07;;;;;;;8.82;4.03;;;18.50;95.00;;;;;;4155556;28;20392;-69
2022/05/11 04:35:08;;;;;;;14.70;4.03;;;18.50;95.00;;;;;;4155126;28;20038;-69
2022/05/11 04:37:11;;;;;;;8.18;3.95;;;18.50;95.00;;;;;;4154166;28;20061;-69
2022/05/11 04:39:11;;;;;;;;;;;18.50;95.10;;;;;;4156962;28;25317;-69
2022/05/11 04:41:12;;;;;;;8.65;3.50;;;18.50;95.30;;;;;;4154581;28;20017;-69
2022/05/11 04:43:13;;;;;;;7.60;3.65;;;18.50;95.40;;;;;;4152864;28;20121;-69
2022/05/11 04:45:14;;;;;;;9.18;3.47;;;18.50;95.40;;;;;;4153353;28;20564;-69
2022/05/11 04:47:17;;;;;;;11.40;3.50;;;18.50;95.20;;;;;;4154535;28;20076;-69
2022/05/11 04:49:23;;;;;;;7.40;3.90;;;18.40;95.20;;;;;;4153690;28;20042;-69
2022/05/11 04:51:24;;;;;;;7.57;4.03;;;18.40;95.30;;;;;;4153652;28;20408;-69
2022/05/11 04:53:25;;;;;;;10.55;3.50;;;18.40;95.70;;;;;;4153940;28;20100;-69
2022/05/11 04:55:25;;;;;;;8.40;4.07;;;18.40;95.80;;;;;;4153894;28;20045;-70
2022/05/11 04:57:26;;;;;;;6.78;3.40;;;18.50;95.50;;;;;;4155348;28;20128;-69
2022/05/11 04:59:26;;;;;;;8.35;4.18;;;18.50;95.60;;;;;;4154528;28;20039;-69
2022/05/11 05:01:27;;;;;;;10.43;3.95;;;18.50;95.80;;;;;;4156908;28;20076;-69
2022/05/11 05:03:28;;;;;;;6.25;4.10;;;18.50;95.80;;;;;;4157250;28;20025;-69
2022/05/11 05:05:28;;;;;;;18.95;4.60;;;18.60;95.70;;;;;;4158006;28;20033;-69
2022/05/11 05:07:29;;;;;;;5.82;3.97;;;18.60;95.70;;;;;;4160031;28;20574;-69
2022/05/11 05:09:29;;;;;;;8.15;3.97;;;18.60;95.60;;;;;;4159106;28;20514;-69
2022/05/11 05:11:30;;;;;;;7.45;4.03;;;18.60;95.50;;;;;;4157773;28;20388;-69
2022/05/11 05:13:31;;;;;;;10.35;4.03;;;18.60;95.50;;;;;;4157445;28;20048;-69
2022/05/11 05:15:34;;;;;;;9.52;4.00;;;18.60;95.30;;;;;;4156588;28;20404;-69
2022/05/11 05:17:35;;;;;;;8.75;4.00;;;18.70;95.40;;;;;;4157259;28;20045;-69
2022/05/11 05:19:40;;;;;;;7.80;3.97;;;18.70;95.40;;;;;;4157612;28;20591;-69
2022/05/11 05:21:41;;;;;;;7.65;4.63;;;18.70;95.40;;;;;;4158137;28;20040;-68
2022/05/11 05:23:42;;;;;;;7.38;4.43;;;18.70;95.70;;;;;;4155504;28;20050;-69
2022/05/11 05:25:42;;;;;;;7.05;4.00;;;18.80;96.00;;;;;;4157745;28;20090;-68
2022/05/11 05:27:43;;;;;;;13.60;4.90;;;18.80;95.80;;;;;;4158331;28;20548;-68
2022/05/11 05:32:04;;;;;;;7.25;4.00;;;18.80;95.80;;;;;;4152315;28;20040;-69
2022/05/11 05:34:04;;;;;;;6.70;3.65;;;18.90;95.50;;;;;;4157856;28;20046;-69
2022/05/11 05:36:05;;;;;;;5.63;3.08;;;18.90;95.70;;;;;;4157249;28;20044;-69
2022/05/11 05:38:06;;;;;;;9.43;4.22;;;18.90;95.70;;;;;;4156874;28;20045;-69
2022/05/11 05:40:07;;;;;;;10.60;4.53;;;19.00;95.40;;;;;;4155447;28;20028;-70
2022/05/11 05:42:09;;;;;;;10.38;4.28;;;19.00;95.30;;;;;;4157505;28;20050;-69
2022/05/11 05:44:09;;;;;;;7.30;3.80;;;18.90;95.40;;;;;;4157013;28;20499;-69
2022/05/11 05:46:10;;;;;;;6.60;3.72;;;19.00;95.40;;;;;;4155182;28;20064;-69
2022/05/11 05:48:10;;;;;;;8.10;3.65;;;19.10;95.60;;;;;;4156606;28;20024;-68
2022/05/11 05:50:11;;;;;;;8.77;3.72;;;19.10;95.60;;;;;;4150885;28;20040;-70
2022/05/11 05:52:17;;;;;;;5.10;3.25;;;19.10;95.60;;;;;;4157232;28;20034;-69
2022/05/11 05:54:18;;;;;;;8.02;4.07;;;19.20;95.90;;;;;;4156611;28;20452;-69
2022/05/11 05:56:18;;;;;;;7.15;4.53;;;19.20;96.10;;;;;;4155470;28;20042;-69
2022/05/11 05:58:19;;;;;;;8.30;4.75;;;19.30;95.80;;;;;;4157240;28;20041;-69
2022/05/11 06:00:20;;;;;;;7.93;4.53;;;19.20;95.70;;;;;;4156043;28;20119;-69
2022/05/11 06:02:20;;;;;;;7.85;4.88;;;19.30;96.00;;;;;;4156813;28;20044;-69
2022/05/11 06:04:21;;;;;;;13.07;5.90;;;19.20;95.90;;;;;;4154238;28;20029;-69
2022/05/11 06:06:21;;;;;;;10.20;4.90;;;19.20;95.60;;;;;;4156150;28;20038;-69
2022/05/11 06:08:23;;;;;;;9.18;5.40;;;19.20;95.80;;;;;;4156877;28;20041;-69
2022/05/11 06:10:25;;;;;;;9.82;5.25;;;19.20;95.80;;;;;;4154664;28;20041;-69
2022/05/11 06:12:25;;;;;;;13.40;6.17;;;19.30;95.90;;;;;;4152673;28;20048;-70
2022/05/11 06:14:26;;;;;;;13.13;5.78;;;19.50;96.00;;;;;;4154196;28;20770;-69
2022/05/11 06:16:26;;;;;;;8.25;5.05;;;19.70;95.60;;;;;;4152698;28;20030;-70
2022/05/11 06:18:29;;;;;;;10.57;5.05;;;20.00;95.30;;;;;;4155943;28;20075;-69
2022/05/11 06:20:30;;;;;;;6.47;3.85;;;20.40;94.10;;;;;;4154313;28;20535;-69
2022/05/11 06:22:30;;;;;;;12.52;5.43;;;20.80;94.10;;;;;;4156338;28;20046;-69
2022/05/11 06:24:31;;;;;;;8.57;4.10;;;21.20;92.80;;;;;;4154509;28;20038;-69
2022/05/11 06:26:31;;;;;;;12.60;5.15;;;21.60;92.90;;;;;;4155640;28;20037;-69
2022/05/11 06:28:34;;;;;;;6.85;4.13;;;21.70;91.70;;;;;;4156142;28;20384;-69
2022/05/11 06:30:35;;;;;;;9.30;4.50;;;21.90;91.50;;;;;;4152992;28;20113;-69
2022/05/11 06:32:36;;;;;;;7.43;3.78;;;22.30;91.10;;;;;;4154246;28;20076;-69
2022/05/11 06:34:37;;;;;;;5.70;3.60;;;22.50;90.20;;;;;;4155210;28;20041;-69
2022/05/11 06:36:37;;;;;;;6.47;3.38;;;22.80;89.30;;;;;;4155791;28;20674;-70
2022/05/11 06:38:38;;;;;;;5.75;2.83;;;23.10;87.50;;;;;;4155733;28;20041;-70
2022/05/11 06:40:38;;;;;;;3.80;2.80;;;23.30;88.40;;;;;;4154378;28;20032;-70
2022/05/11 06:42:39;;;;;;;3.53;2.30;;;23.60;87.60;;;;;;4156706;28;20029;-69
2022/05/11 06:44:41;;;;;;;5.63;2.58;;;23.50;84.70;;;;;;4156683;28;20444;-70
2022/05/11 06:46:41;;;;;;;3.60;1.80;;;23.60;84.30;;;;;;4152734;28;20481;-70
2022/05/11 06:48:42;;;;;;;3.92;2.30;;;23.60;84.10;;;;;;4151585;28;20030;-69
2022/05/11 06:50:42;;;;;;;2.88;1.83;;;23.60;83.40;;;;;;4150640;28;20045;-70
2022/05/11 06:52:43;;;;;;;5.20;1.98;;;23.40;83.50;;;;;;4151635;28;20056;-70
2022/05/11 06:59:26;;;;;;;4.95;1.90;;;23.20;82.30;;;;;;4155093;28;20301;-70
2022/05/11 07:01:27;;;;;;;1.85;1.42;;;23.20;83.10;;;;;;4155041;28;20030;-71
2022/05/11 07:03:27;;;;;;;3.05;1.40;;;23.20;83.80;;;;;;4157078;28;20025;-71
2022/05/11 07:05:29;;;;;;;4.35;1.95;;;23.20;85.00;;;;;;4155720;28;20065;-70
2022/05/11 07:07:30;;;;;;;2.28;1.52;;;23.30;82.30;;;;;;4156460;28;20047;-70
2022/05/11 07:09:32;;;;;;;3.30;1.40;;;23.20;82.70;;;;;;4170823;28;20120;-70
2022/05/11 07:13:53;;;;;;;3.00;1.45;;;23.30;81.40;;;;;;4156080;28;19948;-69
2022/05/11 07:15:53;;;;;;;3.42;1.40;;;23.50;81.70;;;;;;4156372;28;20033;-70
2022/05/11 07:17:59;;;;;;;5.82;1.60;;;23.50;82.80;;;;;;4156365;28;20468;-70
2022/05/11 07:20:03;;;;;;;4.70;1.50;;;23.60;81.30;;;;;;4154372;28;20041;-70
2022/05/11 07:22:04;;;;;;;5.05;1.73;;;23.60;80.30;;;;;;4155350;28;20048;-70
2022/05/11 07:24:05;;;;;;;2.90;1.30;;;23.60;80.90;;;;;;4156148;28;20037;-70
2022/05/11 07:26:05;;;;;;;2.25;1.30;;;23.50;79.70;;;;;;4156916;28;20056;-70
2022/05/11 07:28:06;;;;;;;2.78;1.30;;;23.50;81.10;;;;;;4147921;28;20496;-70
2022/05/11 07:30:09;;;;;;;3.88;1.80;;;23.50;81.40;;;;;;4155572;28;20041;-70
2022/05/11 07:32:10;;;;;;;1.98;1.05;;;23.50;80.90;;;;;;4156420;28;20041;-70
2022/05/11 07:34:11;;;;;;;3.45;1.35;;;23.60;81.10;;;;;;4157222;28;20481;-70
2022/05/11 07:36:12;;;;;;;4.38;1.30;;;23.50;79.20;;;;;;4155104;28;20056;-69
2022/05/11 07:38:18;;;;;;;1.70;1.27;;;23.50;80.40;;;;;;4155663;28;20037;-67
2022/05/11 07:40:20;;;;;;;5.72;1.38;;;23.50;80.20;;;;;;4153907;28;20575;-67
2022/05/11 07:42:21;;;;;;;2.75;1.42;;;23.50;79.00;;;;;;4156706;28;20393;-67
2022/05/11 07:44:22;;;;;;;4.40;1.40;;;23.40;78.60;;;;;;4155413;28;20068;-67
2022/05/11 07:46:22;;;;;;;3.00;1.27;;;23.40;79.40;;;;;;4152747;28;20117;-67
2022/05/11 07:48:23;;;;;;;1.83;1.38;;;23.40;80.10;;;;;;4155722;28;20037;-67
2022/05/11 07:50:24;;;;;;;2.67;1.42;;;23.50;79.50;;;;;;4154627;28;20048;-67
2022/05/11 07:52:24;;;;;;;2.13;1.20;;;23.50;79.50;;;;;;4155794;28;20400;-67
2022/05/11 07:54:25;;;;;;;3.05;1.30;;;23.60;80.30;;;;;;4154350;28;20041;-70
2022/05/11 08:01:05;;;;;;;2.42;1.40;;;23.70;78.70;;;;;;4153044;28;20409;-67
2022/05/11 08:03:06;;;;;;;2.55;1.52;;;23.80;79.00;;;;;;4155687;28;20084;-67
2022/05/11 08:05:10;;;;;;;1.83;1.20;;;23.70;78.30;;;;;;4156311;28;20041;-67
2022/05/11 08:07:15;;;;;;;6.55;1.83;;;23.80;78.90;;;;;;4155809;28;20030;-67
2022/05/11 08:09:16;;;;;;;2.05;1.25;;;23.80;79.50;;;;;;4154866;28;20033;-67
2022/05/11 08:11:16;;;;;;;5.25;1.50;;;23.80;78.50;;;;;;4155599;28;20033;-67
2022/05/11 08:13:17;;;;;;;4.85;1.67;;;23.90;79.30;;;;;;4148558;28;20034;-67
2022/05/11 08:15:19;;;;;;;2.05;1.50;;;23.70;77.60;;;;;;4155170;28;20473;-67
2022/05/11 08:17:30;;;;;;;4.38;1.88;;;23.70;77.60;;;;;;4151570;28;20424;-66
2022/05/11 08:19:31;;;;;;;2.92;1.90;;;23.60;79.00;;;;;;4152544;28;21249;-70
2022/05/11 08:21:33;;;;;;;3.20;1.58;;;23.60;77.80;;;;;;4154478;28;20041;-70
2022/05/11 08:23:34;;;;;;;4.15;2.17;;;23.60;78.80;;;;;;4154082;28;20171;-70
2022/05/11 08:25:38;;;;;;;3.78;1.52;;;23.60;78.50;;;;;;4156176;28;20045;-70
2022/05/11 08:27:38;;;;;;;1.80;1.48;;;23.60;79.00;;;;;;4155605;28;20106;-70
2022/05/11 08:34:19;;;;;;;8.43;2.03;;;23.60;78.50;;;;;;4156486;28;20156;-70
2022/05/11 08:36:23;;;;;;;3.72;1.75;;;23.60;78.20;;;;;;4158384;28;20504;-69
2022/05/11 08:38:26;;;;;;;4.65;1.73;;;23.60;78.80;;;;;;4159094;28;20041;-69
2022/05/11 08:40:31;;;;;;;3.13;1.42;;;23.60;80.70;;;;;;4155262;28;20049;-70
2022/05/11 08:42:33;;;;;;;4.55;1.17;;;23.80;79.70;;;;;;4151993;28;20412;-70
2022/05/11 08:44:36;;;;;;;1.85;1.45;;;23.80;80.00;;;;;;4158438;28;20053;-70
2022/05/11 08:47:02;;;;;;;3.13;1.50;;;23.90;80.00;;;;;;4158728;28;20044;-70
2022/05/11 08:49:35;;;;;;;5.22;1.65;;;24.00;78.50;;;;;;4159123;28;20041;-70
2022/05/11 08:51:56;;;;;;;2.05;1.17;;;24.10;77.80;;;;;;4159225;28;20080;-70
2022/05/11 08:54:11;;;;;;;3.13;1.65;;;24.20;79.40;;;;;;4153716;28;20079;-70
2022/05/11 08:56:16;;;;;;;2.35;1.70;;;24.30;79.60;;;;;;4158602;28;20346;-69
2022/05/11 08:58:22;;;;;;;3.47;1.92;;;24.30;78.70;;;;;;4159415;28;20042;-69
2022/05/11 09:00:23;;;;;;;5.60;1.60;;;24.30;78.30;;;;;;4157392;28;20404;-69
2022/05/11 09:02:48;;;;;;;3.83;1.90;;;24.20;78.10;;;;;;4159571;28;20099;-69
2022/05/11 09:04:59;;;;;;;3.33;1.60;;;24.30;79.60;;;;;;4157873;28;20044;-69
2022/05/11 09:06:59;;;;;;;5.05;1.50;;;24.40;78.20;;;;;;4159009;28;20042;-70
2022/05/11 09:09:03;;;;;;;3.03;1.60;;;24.40;78.10;;;;;;4159601;28;20103;-70
2022/05/11 09:11:05;;;;;;;4.03;1.45;;;24.40;76.00;;;;;;4157897;28;20505;-70
2022/05/11 09:13:09;;;;;;;;;;;24.30;76.50;;;;;;4159307;28;20037;-69
2022/05/11 09:15:10;;;;;;;2.30;1.30;;;24.30;76.10;;;;;;4173735;28;19909;-70
2022/05/11 09:17:22;;;;;;;1.63;1.30;;;24.20;76.70;;;;;;4159730;28;20042;-69
2022/05/11 09:19:29;;;;;;;2.75;1.50;;;24.40;77.30;;;;;;4158634;28;20092;-69
2022/05/11 09:21:32;;;;;;;1.98;1.30;;;24.50;78.30;;;;;;4152788;28;20048;-70
2022/05/11 09:23:37;;;;;;;4.35;1.50;;;24.40;77.50;;;;;;4157714;28;20605;-70
2022/05/11 09:26:02;;;;;;;4.13;1.48;;;24.40;74.80;;;;;;4159900;28;20447;-69
2022/05/11 09:28:19;;;;;;;5.97;1.70;;;24.40;76.50;;;;;;4156666;28;20091;-69
2022/05/11 09:30:30;;;;;;;5.05;1.70;;;24.30;75.00;;;;;;4157818;28;20034;-69
2022/05/11 09:32:35;;;;;;;3.67;1.55;;;24.30;75.50;;;;;;4158547;28;20068;-70
2022/05/11 09:34:36;;;;;;;3.65;1.58;;;24.30;75.00;;;;;;4157124;28;20401;-70
2022/05/11 09:36:40;;;;;;;6.43;1.92;;;24.30;74.50;;;;;;4159985;28;20045;-69
2022/05/11 09:38:43;;;;;;;3.80;1.75;;;24.30;76.80;;;;;;4159824;28;20029;-69
2022/05/11 09:40:58;;;;;;;3.47;1.40;;;24.40;75.50;;;;;;4157843;28;20045;-69
2022/05/11 09:43:02;;;;;;;3.00;1.60;;;24.40;75.80;;;;;;4158522;28;20041;-70
2022/05/11 09:45:04;;;;;;;4.03;1.80;;;24.50;77.00;;;;;;4159609;28;20560;-70
2022/05/11 09:47:27;;;;;;;2.28;1.65;;;24.30;75.40;;;;;;4159659;28;20041;-69
2022/05/11 09:49:27;;;;;;;2.67;1.42;;;24.40;75.50;;;;;;4158447;28;20037;-69
2022/05/11 09:51:42;;;;;;;3.53;1.52;;;24.50;76.20;;;;;;4158424;28;20664;-69
2022/05/11 09:54:05;;;;;;;5.78;1.52;;;24.50;74.40;;;;;;4158622;28;20113;-69
2022/05/11 09:56:34;;;;;;;2.65;1.42;;;24.50;74.10;;;;;;4158570;28;20041;-69
2022/05/11 09:58:35;;;;;;;6.70;1.65;;;24.50;74.70;;;;;;4153728;28;20057;-69
2022/05/11 10:00:38;;;;;;;10.88;2.08;;;24.50;74.60;;;;;;4152121;28;20037;-69
2022/05/11 10:02:53;;;;;;;2.25;1.40;;;24.30;73.50;;;;;;4159660;28;20408;-69
2022/05/11 10:05:04;;;;;;;2.72;1.90;;;24.30;74.90;;;;;;4157777;28;20045;-69
2022/05/11 10:07:10;;;;;;;6.05;1.70;;;24.30;74.10;;;;;;4158284;28;20132;-69
2022/05/11 10:09:12;;;;;;;2.47;1.63;;;24.40;75.90;;;;;;4158860;28;20041;-70
2022/05/11 10:11:30;;;;;;;2.67;1.27;;;24.30;75.00;;;;;;4155557;28;20041;-70
2022/05/11 10:13:45;;;;;;;2.28;1.55;;;24.40;74.90;;;;;;4157809;28;20068;-70
2022/05/11 10:23:10;;;;;;;3.10;1.50;;;24.70;76.20;;;;;;4157935;28;20033;-69
2022/05/11 10:25:20;;;;;;;5.60;1.27;;;24.70;75.80;;;;;;4158160;28;20709;-70
2022/05/11 10:27:38;;;;;;;7.03;1.70;;;24.80;76.10;;;;;;4157847;28;20045;-69
2022/05/11 10:30:02;;;;;;;3.90;1.60;;;24.80;73.30;;;;;;4156087;28;20075;-67
2022/05/11 10:32:08;;;;;;;4.15;2.20;;;24.80;74.00;;;;;;4157765;28;20496;-67
2022/05/11 10:34:16;;;;;;;2.95;1.50;;;24.70;73.50;;;;;;4156229;28;22208;-69
2022/05/11 10:36:42;;;;;;;4.22;1.60;;;24.70;74.10;;;;;;4155596;28;20060;-67
2022/05/11 10:39:07;;;;;;;4.13;1.60;;;24.80;74.80;;;;;;4157204;28;20036;-68
2022/05/11 10:41:36;;;;;;;5.65;1.52;;;24.80;74.40;;;;;;4153868;28;20126;-67
2022/05/11 10:44:14;;;;;;;3.28;1.55;;;24.90;74.70;;;;;;4155662;28;21592;-68
2022/05/11 10:46:43;;;;;;;2.90;1.50;;;24.90;74.10;;;;;;4155750;28;20040;-67
2022/05/11 10:49:25;;;;;;;3.22;1.50;;;24.90;73.30;;;;;;4155623;28;20361;-67
2022/05/11 10:51:57;;;;;;;6.28;1.90;;;24.80;73.40;;;;;;4156590;28;20076;-67
2022/05/11 10:54:11;;;;;;;3.53;1.55;;;24.80;74.30;;;;;;4155135;28;20063;-69
2022/05/11 10:56:33;;;;;;;3.92;1.95;;;24.80;72.90;;;;;;4156023;28;20092;-67
2022/05/11 10:59:07;;;;;;;2.92;1.63;;;24.80;73.00;;;;;;4156157;28;20046;-68
2022/05/11 11:01:14;;;;;;;3.35;1.75;;;24.90;74.00;;;;;;4155791;28;20485;-67
2022/05/11 11:03:49;;;;;;;2.75;1.38;;;24.90;74.50;;;;;;4155966;28;20037;-68
2022/05/11 11:08:42;;;;;;;2.35;1.52;;;24.90;74.00;;;;;;4154256;28;20394;-68
2022/05/11 11:10:52;;;;;;;4.43;1.63;;;24.90;73.10;;;;;;4156357;28;20431;-67
2022/05/11 11:13:22;;;;;;;3.78;1.40;;;24.90;74.20;;;;;;4156300;28;20033;-67
2022/05/11 11:15:26;;;;;;;2.53;1.23;;;25.00;74.80;;;;;;4155633;28;20044;-67
2022/05/11 11:17:28;;;;;;;3.22;1.30;;;25.10;74.80;;;;;;4153697;28;20504;-67
2022/05/11 11:19:30;;;;;;;3.30;1.60;;;25.10;72.80;;;;;;4155376;28;20037;-67
2022/05/11 11:21:31;;;;;;;7.03;1.73;;;25.20;74.10;;;;;;4156383;28;20053;-70
2022/05/11 11:23:42;;;;;;;6.03;1.98;;;25.10;71.90;;;;;;4156716;28;20124;-68
2022/05/11 11:25:43;;;;;;;6.53;2.03;;;25.10;72.70;;;;;;4157286;28;20040;-66